sensor_id;sensor_type;location;lat;lon;timestamp;pressure;altitude;pressure_sealevel;temperature;humidity
26823;BME280;14852;51.910;8.878;2024-03-07T00:02:37;100770.38;;;6.04;60.81
26823;BME280;14852;51.910;8.878;2024-03-07T00:05:04;100765.34;;;5.98;60.69
26823;BME280;14852;51.910;8.878;2024-03-07T00:07:29;100761.13;;;5.91;60.78
26823;BME280;14852;51.910;8.878;2024-03-07T00:09:56;100761.22;;;5.88;61.12
26823;BME280;14852;51.910;8.878;2024-03-07T00:12:23;100761.25;;;5.83;61.27
26823;BME280;14852;51.910;8.878;2024-03-07T00:14:49;100763.03;;;5.80;61.10
26823;BME280;14852;51.910;8.878;2024-03-07T00:17:14;100758.81;;;5.76;61.18
26823;BME280;14852;51.910;8.878;2024-03-07T00:19:40;100763.19;;;5.71;61.23
26823;BME280;14852;51.910;8.878;2024-03-07T00:22:06;100761.50;;;5.68;61.32
26823;BME280;14852;51.910;8.878;2024-03-07T00:24:31;100766.75;;;5.64;61.15
26823;BME280;14852;51.910;8.878;2024-03-07T00:26:57;100759.94;;;5.60;61.25
26823;BME280;14852;51.910;8.878;2024-03-07T00:29:23;100759.13;;;5.55;61.32
26823;BME280;14852;51.910;8.878;2024-03-07T00:31:49;100762.69;;;5.47;61.14
26823;BME280;14852;51.910;8.878;2024-03-07T00:34:15;100762.00;;;5.36;61.28
26823;BME280;14852;51.910;8.878;2024-03-07T00:36:43;100757.91;;;5.23;61.63
26823;BME280;14852;51.910;8.878;2024-03-07T00:39:08;100762.34;;;5.14;61.71
26823;BME280;14852;51.910;8.878;2024-03-07T00:41:38;100759.94;;;5.03;61.54
26823;BME280;14852;51.910;8.878;2024-03-07T00:44:04;100763.41;;;4.97;61.62
26823;BME280;14852;51.910;8.878;2024-03-07T00:46:30;100769.53;;;4.92;61.69
26823;BME280;14852;51.910;8.878;2024-03-07T00:48:56;100768.69;;;4.90;61.83
26823;BME280;14852;51.910;8.878;2024-03-07T00:51:22;100765.25;;;4.89;61.68
26823;BME280;14852;51.910;8.878;2024-03-07T00:53:48;100763.50;;;4.93;61.84
26823;BME280;14852;51.910;8.878;2024-03-07T00:56:14;100757.50;;;4.92;61.97
26823;BME280;14852;51.910;8.878;2024-03-07T00:58:40;100763.50;;;4.91;61.61
26823;BME280;14852;51.910;8.878;2024-03-07T01:01:06;100758.38;;;4.91;61.74
26823;BME280;14852;51.910;8.878;2024-03-07T01:03:32;100760.13;;;4.88;61.66
26823;BME280;14852;51.910;8.878;2024-03-07T01:05:57;100758.41;;;4.88;61.80
26823;BME280;14852;51.910;8.878;2024-03-07T01:08:24;100756.69;;;4.87;61.66
26823;BME280;14852;51.910;8.878;2024-03-07T01:10:50;100759.28;;;4.87;61.58
26823;BME280;14852;51.910;8.878;2024-03-07T01:13:16;100758.44;;;4.85;61.51
26823;BME280;14852;51.910;8.878;2024-03-07T01:15:45;100760.16;;;4.85;61.41
26823;BME280;14852;51.910;8.878;2024-03-07T01:18:11;100761.06;;;4.84;61.78
26823;BME280;14852;51.910;8.878;2024-03-07T01:20:38;100755.94;;;4.79;61.61
26823;BME280;14852;51.910;8.878;2024-03-07T01:23:04;100749.09;;;4.77;61.65
26823;BME280;14852;51.910;8.878;2024-03-07T01:25:30;100748.28;;;4.74;61.66
26823;BME280;14852;51.910;8.878;2024-03-07T01:28:00;100746.63;;;4.70;61.63
26823;BME280;14852;51.910;8.878;2024-03-07T01:30:26;100741.50;;;4.69;61.73
26823;BME280;14852;51.910;8.878;2024-03-07T01:32:54;100742.38;;;4.66;61.90
26823;BME280;14852;51.910;8.878;2024-03-07T01:35:20;100742.41;;;4.63;61.51
26823;BME280;14852;51.910;8.878;2024-03-07T01:37:46;100739.03;;;4.60;61.95
26823;BME280;14852;51.910;8.878;2024-03-07T01:40:12;100742.47;;;4.59;61.97
26823;BME280;14852;51.910;8.878;2024-03-07T01:42:40;100740.78;;;4.56;61.58
26823;BME280;14852;51.910;8.878;2024-03-07T01:45:06;100733.13;;;4.52;61.64
26823;BME280;14852;51.910;8.878;2024-03-07T01:47:35;100732.34;;;4.45;61.86
26823;BME280;14852;51.910;8.878;2024-03-07T01:50:02;100735.88;;;4.36;62.16
26823;BME280;14852;51.910;8.878;2024-03-07T01:52:30;100732.50;;;4.31;62.28
26823;BME280;14852;51.910;8.878;2024-03-07T01:54:56;100729.16;;;4.25;62.07
26823;BME280;14852;51.910;8.878;2024-03-07T01:57:22;100732.63;;;4.22;62.11
26823;BME280;14852;51.910;8.878;2024-03-07T01:59:48;100736.94;;;4.19;62.36
26823;BME280;14852;51.910;8.878;2024-03-07T02:02:16;100726.66;;;4.16;62.13
26823;BME280;14852;51.910;8.878;2024-03-07T02:04:52;100722.44;;;4.13;62.27
26823;BME280;14852;51.910;8.878;2024-03-07T02:07:18;100734.47;;;4.08;62.20
26823;BME280;14852;51.910;8.878;2024-03-07T02:09:43;100728.50;;;4.06;62.15
26823;BME280;14852;51.910;8.878;2024-03-07T02:12:09;100727.69;;;4.03;62.30
26823;BME280;14852;51.910;8.878;2024-03-07T02:14:35;100734.56;;;3.99;62.32
26823;BME280;14852;51.910;8.878;2024-03-07T02:17:01;100726.88;;;3.94;62.50
26823;BME280;14852;51.910;8.878;2024-03-07T02:19:26;100723.53;;;3.89;62.12
26823;BME280;14852;51.910;8.878;2024-03-07T02:21:52;100722.69;;;3.87;62.18
26823;BME280;14852;51.910;8.878;2024-03-07T02:24:18;100721.00;;;3.83;62.41
26823;BME280;14852;51.910;8.878;2024-03-07T02:26:43;100713.34;;;3.80;62.33
26823;BME280;14852;51.910;8.878;2024-03-07T02:29:09;100715.06;;;3.78;62.22
26823;BME280;14852;51.910;8.878;2024-03-07T02:31:36;100709.06;;;3.78;62.47
26823;BME280;14852;51.910;8.878;2024-03-07T02:34:05;100703.09;;;3.77;62.37
26823;BME280;14852;51.910;8.878;2024-03-07T02:36:33;100709.09;;;3.75;62.27
26823;BME280;14852;51.910;8.878;2024-03-07T02:39:00;100706.53;;;3.72;62.39
26823;BME280;14852;51.910;8.878;2024-03-07T02:41:26;100704.03;;;3.69;62.46
26823;BME280;14852;51.910;8.878;2024-03-07T02:43:52;100708.31;;;3.67;62.34
26823;BME280;14852;51.910;8.878;2024-03-07T02:46:19;100705.75;;;3.65;62.35
26823;BME280;14852;51.910;8.878;2024-03-07T02:48:45;100704.91;;;3.63;62.25
26823;BME280;14852;51.910;8.878;2024-03-07T02:51:11;100704.06;;;3.62;62.34
26823;BME280;14852;51.910;8.878;2024-03-07T02:53:37;100704.06;;;3.61;62.29
26823;BME280;14852;51.910;8.878;2024-03-07T02:56:04;100703.22;;;3.60;62.60
26823;BME280;14852;51.910;8.878;2024-03-07T02:58:33;100699.78;;;3.61;62.46
26823;BME280;14852;51.910;8.878;2024-03-07T03:01:00;100694.66;;;3.58;62.21
26823;BME280;14852;51.910;8.878;2024-03-07T03:03:29;100698.13;;;3.57;62.40
26823;BME280;14852;51.910;8.878;2024-03-07T03:05:59;100705.00;;;3.54;62.26
26823;BME280;14852;51.910;8.878;2024-03-07T03:08:25;100701.59;;;3.50;62.38
26823;BME280;14852;51.910;8.878;2024-03-07T03:10:55;100698.19;;;3.48;62.41
26823;BME280;14852;51.910;8.878;2024-03-07T03:13:23;100696.53;;;3.43;62.61
26823;BME280;14852;51.910;8.878;2024-03-07T03:15:50;100699.97;;;3.42;62.77
26823;BME280;14852;51.910;8.878;2024-03-07T03:18:15;100699.13;;;3.41;62.50
26823;BME280;14852;51.910;8.878;2024-03-07T03:20:41;100696.56;;;3.40;62.32
26823;BME280;14852;51.910;8.878;2024-03-07T03:23:09;100696.56;;;3.41;62.51
26823;BME280;14852;51.910;8.878;2024-03-07T03:25:39;100699.13;;;3.40;62.42
26823;BME280;14852;51.910;8.878;2024-03-07T03:28:05;100697.44;;;3.36;62.74
26823;BME280;14852;51.910;8.878;2024-03-07T03:30:32;100693.22;;;3.28;62.69
26823;BME280;14852;51.910;8.878;2024-03-07T03:32:58;100691.53;;;3.24;62.57
26823;BME280;14852;51.910;8.878;2024-03-07T03:35:25;100695.00;;;3.22;62.82
26823;BME280;14852;51.910;8.878;2024-03-07T03:37:50;100690.72;;;3.22;62.69
26823;BME280;14852;51.910;8.878;2024-03-07T03:40:16;100695.81;;;3.24;62.44
26823;BME280;14852;51.910;8.878;2024-03-07T03:42:43;100694.94;;;3.25;62.54
26823;BME280;14852;51.910;8.878;2024-03-07T03:45:09;100695.81;;;3.25;62.65
26823;BME280;14852;51.910;8.878;2024-03-07T03:47:40;100688.97;;;3.26;62.37
26823;BME280;14852;51.910;8.878;2024-03-07T03:50:09;100682.13;;;3.23;62.52
26823;BME280;14852;51.910;8.878;2024-03-07T03:52:35;100696.72;;;3.20;62.47
26823;BME280;14852;51.910;8.878;2024-03-07T03:55:02;100695.03;;;3.14;62.55
26823;BME280;14852;51.910;8.878;2024-03-07T03:57:30;100695.91;;;3.12;62.49
26823;BME280;14852;51.910;8.878;2024-03-07T03:59:56;100694.22;;;3.11;62.38
26823;BME280;14852;51.910;8.878;2024-03-07T04:02:22;100695.94;;;3.10;62.76
26823;BME280;14852;51.910;8.878;2024-03-07T04:04:49;100688.25;;;3.10;62.43
26823;BME280;14852;51.910;8.878;2024-03-07T04:07:15;100695.09;;;3.10;62.56
26823;BME280;14852;51.910;8.878;2024-03-07T04:09:42;100693.34;;;3.12;62.57
26823;BME280;14852;51.910;8.878;2024-03-07T04:12:09;100688.19;;;3.13;62.55
26823;BME280;14852;51.910;8.878;2024-03-07T04:14:40;100690.75;;;3.16;62.42
26823;BME280;14852;51.910;8.878;2024-03-07T04:17:10;100686.47;;;3.15;62.53
26823;BME280;14852;51.910;8.878;2024-03-07T04:19:42;100691.59;;;3.15;62.47
26823;BME280;14852;51.910;8.878;2024-03-07T04:22:09;100701.88;;;3.18;62.35
26823;BME280;14852;51.910;8.878;2024-03-07T04:24:38;100695.81;;;3.24;62.17
26823;BME280;14852;51.910;8.878;2024-03-07T04:27:04;100688.09;;;3.28;61.97
26823;BME280;14852;51.910;8.878;2024-03-07T04:29:31;100696.56;;;3.37;61.75
26823;BME280;14852;51.910;8.878;2024-03-07T04:31:58;100688.84;;;3.43;61.90
26823;BME280;14852;51.910;8.878;2024-03-07T04:34:24;100681.91;;;3.49;61.63
26823;BME280;14852;51.910;8.878;2024-03-07T04:36:50;100684.44;;;3.57;61.49
26823;BME280;14852;51.910;8.878;2024-03-07T04:39:16;100682.66;;;3.60;61.27
26823;BME280;14852;51.910;8.878;2024-03-07T04:41:53;100682.63;;;3.67;61.34
26823;BME280;14852;51.910;8.878;2024-03-07T04:44:20;100678.28;;;3.72;61.47
26823;BME280;14852;51.910;8.878;2024-03-07T04:46:50;100676.50;;;3.78;61.31
26823;BME280;14852;51.910;8.878;2024-03-07T04:49:24;100667.88;;;3.82;61.52
26823;BME280;14852;51.910;8.878;2024-03-07T04:51:51;100669.56;;;3.88;61.14
26823;BME280;14852;51.910;8.878;2024-03-07T04:54:20;100670.34;;;3.93;61.49
26823;BME280;14852;51.910;8.878;2024-03-07T04:56:48;100670.31;;;3.96;61.40
26823;BME280;14852;51.910;8.878;2024-03-07T04:59:16;100674.59;;;3.97;61.29
26823;BME280;14852;51.910;8.878;2024-03-07T05:01:45;100680.63;;;3.93;61.42
26823;BME280;14852;51.910;8.878;2024-03-07T05:04:15;100677.25;;;3.88;61.73
26823;BME280;14852;51.910;8.878;2024-03-07T05:06:41;100684.97;;;3.88;61.98
26823;BME280;14852;51.910;8.878;2024-03-07T05:09:10;100670.34;;;3.93;61.92
26823;BME280;14852;51.910;8.878;2024-03-07T05:11:47;100677.13;;;4.02;61.78
26823;BME280;14852;51.910;8.878;2024-03-07T05:14:12;100674.47;;;4.08;61.71
26823;BME280;14852;51.910;8.878;2024-03-07T05:16:38;100672.69;;;4.14;61.63
26823;BME280;14852;51.910;8.878;2024-03-07T05:19:04;100682.06;;;4.17;61.62
26823;BME280;14852;51.910;8.878;2024-03-07T05:21:30;100674.41;;;4.15;61.67
26823;BME280;14852;51.910;8.878;2024-03-07T05:24:03;100681.16;;;4.22;61.74
26823;BME280;14852;51.910;8.878;2024-03-07T05:26:30;100676.88;;;4.23;61.99
26823;BME280;14852;51.910;8.878;2024-03-07T05:29:09;100682.84;;;4.26;61.87
26823;BME280;14852;51.910;8.878;2024-03-07T05:31:39;100675.91;;;4.30;61.89
26823;BME280;14852;51.910;8.878;2024-03-07T05:34:16;100676.69;;;4.38;61.67
26823;BME280;14852;51.910;8.878;2024-03-07T05:36:45;100678.31;;;4.44;61.88
26823;BME280;14852;51.910;8.878;2024-03-07T05:39:13;100687.72;;;4.46;61.87
26823;BME280;14852;51.910;8.878;2024-03-07T05:41:40;100685.16;;;4.46;61.98
26823;BME280;14852;51.910;8.878;2024-03-07T05:44:06;100690.28;;;4.48;61.83
26823;BME280;14852;51.910;8.878;2024-03-07T05:46:38;100685.94;;;4.51;61.85
26823;BME280;14852;51.910;8.878;2024-03-07T05:49:08;100685.78;;;4.62;61.87
26823;BME280;14852;51.910;8.878;2024-03-07T05:51:34;100691.78;;;4.62;61.71
26823;BME280;14852;51.910;8.878;2024-03-07T05:54:00;100690.16;;;4.58;61.66
26823;BME280;14852;51.910;8.878;2024-03-07T05:56:25;100692.75;;;4.57;62.10
26823;BME280;14852;51.910;8.878;2024-03-07T05:58:51;100692.72;;;4.58;62.04
26823;BME280;14852;51.910;8.878;2024-03-07T06:01:18;100693.50;;;4.62;62.19
26823;BME280;14852;51.910;8.878;2024-03-07T06:03:44;100685.72;;;4.69;62.22
26823;BME280;14852;51.910;8.878;2024-03-07T06:06:11;100687.34;;;4.73;62.21
26823;BME280;14852;51.910;8.878;2024-03-07T06:08:38;100700.22;;;4.73;62.13
26823;BME280;14852;51.910;8.878;2024-03-07T06:11:08;100695.06;;;4.73;62.17
26823;BME280;14852;51.910;8.878;2024-03-07T06:13:34;100695.03;;;4.77;62.13
26823;BME280;14852;51.910;8.878;2024-03-07T06:15:59;100696.75;;;4.76;62.07
26823;BME280;14852;51.910;8.878;2024-03-07T06:18:29;100695.03;;;4.78;62.29
26823;BME280;14852;51.910;8.878;2024-03-07T06:20:57;100690.69;;;4.82;62.52
26823;BME280;14852;51.910;8.878;2024-03-07T06:23:22;100688.03;;;4.88;62.32
26823;BME280;14852;51.910;8.878;2024-03-07T06:25:48;100687.13;;;4.92;62.10
26823;BME280;14852;51.910;8.878;2024-03-07T06:28:17;100691.31;;;4.97;62.04
26823;BME280;14852;51.910;8.878;2024-03-07T06:30:46;100687.84;;;5.00;62.28
26823;BME280;14852;51.910;8.878;2024-03-07T06:33:13;100689.50;;;5.04;62.39
26823;BME280;14852;51.910;8.878;2024-03-07T06:35:40;100697.16;;;5.08;62.13
26823;BME280;14852;51.910;8.878;2024-03-07T06:38:08;100702.28;;;5.10;62.25
26823;BME280;14852;51.910;8.878;2024-03-07T06:40:38;100698.75;;;5.17;62.25
26823;BME280;14852;51.910;8.878;2024-03-07T06:43:09;100693.47;;;5.25;62.25
26823;BME280;14852;51.910;8.878;2024-03-07T06:45:38;100698.50;;;5.32;62.06
26823;BME280;14852;51.910;8.878;2024-03-07T06:48:08;100699.28;;;5.39;62.09
26823;BME280;14852;51.910;8.878;2024-03-07T06:50:34;100700.91;;;5.43;61.95
26823;BME280;14852;51.910;8.878;2024-03-07T06:53:01;100700.81;;;5.49;62.08
26823;BME280;14852;51.910;8.878;2024-03-07T06:55:27;100697.28;;;5.55;62.03
26823;BME280;14852;51.910;8.878;2024-03-07T06:57:53;100702.31;;;5.62;62.20
26823;BME280;14852;51.910;8.878;2024-03-07T07:00:20;100707.38;;;5.67;61.97
26823;BME280;14852;51.910;8.878;2024-03-07T07:02:49;100708.16;;;5.72;62.08
26823;BME280;14852;51.910;8.878;2024-03-07T07:05:16;100700.38;;;5.75;62.13
26823;BME280;14852;51.910;8.878;2024-03-07T07:07:47;100696.81;;;5.80;62.19
26823;BME280;14852;51.910;8.878;2024-03-07T07:10:14;100704.50;;;5.85;62.16
26823;BME280;14852;51.910;8.878;2024-03-07T07:12:48;100704.41;;;5.91;62.25
26823;BME280;14852;51.910;8.878;2024-03-07T07:15:18;100708.66;;;5.94;62.03
26823;BME280;14852;51.910;8.878;2024-03-07T07:17:47;100705.19;;;5.96;62.24
26823;BME280;14852;51.910;8.878;2024-03-07T07:20:16;100695.59;;;6.03;62.04
26823;BME280;14852;51.910;8.878;2024-03-07T07:22:47;100698.97;;;6.06;61.91
26823;BME280;14852;51.910;8.878;2024-03-07T07:25:14;100697.28;;;6.04;62.01
26823;BME280;14852;51.910;8.878;2024-03-07T07:27:47;100703.31;;;6.03;62.19
26823;BME280;14852;51.910;8.878;2024-03-07T07:30:16;100705.06;;;6.01;62.50
26823;BME280;14852;51.910;8.878;2024-03-07T07:32:44;100701.75;;;5.96;62.64
26823;BME280;14852;51.910;8.878;2024-03-07T07:35:12;100702.56;;;5.98;62.55
26823;BME280;14852;51.910;8.878;2024-03-07T07:37:43;100699.88;;;6.02;62.73
26823;BME280;14852;51.910;8.878;2024-03-07T07:40:13;100700.63;;;6.10;62.35
26823;BME280;14852;51.910;8.878;2024-03-07T07:42:41;100690.13;;;6.18;62.42
26823;BME280;14852;51.910;8.878;2024-03-07T07:45:11;100688.28;;;6.25;62.40
26823;BME280;14852;51.910;8.878;2024-03-07T07:47:45;100683.88;;;6.30;62.30
26823;BME280;14852;51.910;8.878;2024-03-07T07:50:14;100686.31;;;6.37;62.22
26823;BME280;14852;51.910;8.878;2024-03-07T07:52:42;100680.19;;;6.43;62.19
26823;BME280;14852;51.910;8.878;2024-03-07T07:55:08;100686.94;;;6.48;62.28
26823;BME280;14852;51.910;8.878;2024-03-07T07:57:42;100688.56;;;6.52;62.35
26823;BME280;14852;51.910;8.878;2024-03-07T08:00:19;100690.97;;;6.60;62.11
26823;BME280;14852;51.910;8.878;2024-03-07T08:02:54;100688.25;;;6.68;62.07
26823;BME280;14852;51.910;8.878;2024-03-07T08:05:22;100673.41;;;6.77;62.13
26823;BME280;14852;51.910;8.878;2024-03-07T08:07:50;100675.78;;;6.86;62.08
26823;BME280;14852;51.910;8.878;2024-03-07T08:10:18;100675.56;;;6.96;61.91
26823;BME280;14852;51.910;8.878;2024-03-07T08:12:44;100684.03;;;7.02;61.63
26823;BME280;14852;51.910;8.878;2024-03-07T08:15:12;100684.72;;;7.09;61.58
26823;BME280;14852;51.910;8.878;2024-03-07T08:17:47;100683.69;;;7.16;61.69
26823;BME280;14852;51.910;8.878;2024-03-07T08:20:16;100683.75;;;7.14;62.21
26823;BME280;14852;51.910;8.878;2024-03-07T08:22:44;100682.75;;;7.20;62.19
26823;BME280;14852;51.910;8.878;2024-03-07T08:25:11;100673.78;;;7.35;62.15
26823;BME280;14852;51.910;8.878;2024-03-07T08:27:39;100674.06;;;7.58;61.66
26823;BME280;14852;51.910;8.878;2024-03-07T08:30:05;100672.81;;;7.73;61.32
26823;BME280;14852;51.910;8.878;2024-03-07T08:32:34;100657.38;;;8.00;61.14
26823;BME280;14852;51.910;8.878;2024-03-07T08:35:05;100660.31;;;8.50;60.52
26823;BME280;14852;51.910;8.878;2024-03-07T08:37:47;100654.34;;;9.30;59.37
26823;BME280;14852;51.910;8.878;2024-03-07T08:40:26;100647.09;;;11.27;55.45
26823;BME280;14852;51.910;8.878;2024-03-07T08:42:53;100645.16;;;11.52;53.80
26823;BME280;14852;51.910;8.878;2024-03-07T08:45:22;100644.69;;;10.78;55.18
26823;BME280;14852;51.910;8.878;2024-03-07T08:47:53;100648.50;;;10.25;56.97
26823;BME280;14852;51.910;8.878;2024-03-07T08:50:23;100650.88;;;9.81;58.17
26823;BME280;14852;51.910;8.878;2024-03-07T08:52:50;100653.16;;;9.40;59.09
26823;BME280;14852;51.910;8.878;2024-03-07T08:55:20;100653.31;;;9.10;59.80
26823;BME280;14852;51.910;8.878;2024-03-07T08:57:46;100648.72;;;8.90;60.91
26823;BME280;14852;51.910;8.878;2024-03-07T09:00:15;100648.03;;;8.85;61.12
26823;BME280;14852;51.910;8.878;2024-03-07T09:02:58;100654.28;;;8.78;61.43
26823;BME280;14852;51.910;8.878;2024-03-07T09:05:25;100652.00;;;8.68;61.50
26823;BME280;14852;51.910;8.878;2024-03-07T09:07:52;100657.25;;;8.65;61.42
26823;BME280;14852;51.910;8.878;2024-03-07T09:10:18;100650.69;;;8.54;61.95
26823;BME280;14852;51.910;8.878;2024-03-07T09:12:45;100657.69;;;8.52;61.74
26823;BME280;14852;51.910;8.878;2024-03-07T09:15:11;100645.41;;;8.58;62.07
26823;BME280;14852;51.910;8.878;2024-03-07T09:17:41;100649.72;;;8.58;62.22
26823;BME280;14852;51.910;8.878;2024-03-07T09:20:08;100643.69;;;8.57;61.91
26823;BME280;14852;51.910;8.878;2024-03-07T09:22:48;100636.84;;;8.55;62.15
26823;BME280;14852;51.910;8.878;2024-03-07T09:25:15;100642.00;;;8.56;62.05
26823;BME280;14852;51.910;8.878;2024-03-07T09:27:42;100643.53;;;8.63;62.35
26823;BME280;14852;51.910;8.878;2024-03-07T09:30:09;100638.06;;;8.73;61.96
26823;BME280;14852;51.910;8.878;2024-03-07T09:32:41;100643.28;;;8.71;62.08
26823;BME280;14852;51.910;8.878;2024-03-07T09:35:08;100656.59;;;8.59;62.30
26823;BME280;14852;51.910;8.878;2024-03-07T09:37:40;100643.72;;;8.56;62.62
26823;BME280;14852;51.910;8.878;2024-03-07T09:40:07;100644.47;;;8.61;62.73
26823;BME280;14852;51.910;8.878;2024-03-07T09:42:35;100643.59;;;8.60;62.56
26823;BME280;14852;51.910;8.878;2024-03-07T09:45:02;100637.63;;;8.58;62.71
26823;BME280;14852;51.910;8.878;2024-03-07T09:47:30;100639.19;;;8.64;62.60
26823;BME280;14852;51.910;8.878;2024-03-07T09:49:57;100645.16;;;8.94;62.45
26823;BME280;14852;51.910;8.878;2024-03-07T09:52:24;100642.44;;;8.98;61.80
26823;BME280;14852;51.910;8.878;2024-03-07T09:54:51;100647.75;;;8.94;62.13
26823;BME280;14852;51.910;8.878;2024-03-07T09:57:17;100637.63;;;8.86;62.71
26823;BME280;14852;51.910;8.878;2024-03-07T09:59:46;100647.25;;;8.83;62.33
26823;BME280;14852;51.910;8.878;2024-03-07T10:02:16;100643.94;;;8.78;62.57
26823;BME280;14852;51.910;8.878;2024-03-07T10:04:44;100643.06;;;8.77;63.09
26823;BME280;14852;51.910;8.878;2024-03-07T10:07:17;100650.94;;;8.76;62.75
26823;BME280;14852;51.910;8.878;2024-03-07T10:09:44;100645.78;;;8.74;63.04
26823;BME280;14852;51.910;8.878;2024-03-07T10:12:11;100653.31;;;8.82;62.81
26823;BME280;14852;51.910;8.878;2024-03-07T10:14:50;100651.66;;;8.79;62.80
26823;BME280;14852;51.910;8.878;2024-03-07T10:17:17;100647.25;;;8.83;62.44
26823;BME280;14852;51.910;8.878;2024-03-07T10:19:47;100656.63;;;8.87;62.43
26823;BME280;14852;51.910;8.878;2024-03-07T10:22:15;100654.38;;;8.76;62.57
26823;BME280;14852;51.910;8.878;2024-03-07T10:24:52;100658.75;;;8.74;62.66
26823;BME280;14852;51.910;8.878;2024-03-07T10:27:23;100652.16;;;8.64;63.20
26823;BME280;14852;51.910;8.878;2024-03-07T10:29:51;100654.00;;;8.59;63.29
26823;BME280;14852;51.910;8.878;2024-03-07T10:32:21;100652.31;;;8.58;63.41
26823;BME280;14852;51.910;8.878;2024-03-07T10:34:50;100657.50;;;8.58;62.90
26823;BME280;14852;51.910;8.878;2024-03-07T10:37:16;100656.38;;;8.66;63.06
26823;BME280;14852;51.910;8.878;2024-03-07T10:39:49;100657.59;;;8.83;62.67
26823;BME280;14852;51.910;8.878;2024-03-07T10:42:19;100641.03;;;9.15;62.47
26823;BME280;14852;51.910;8.878;2024-03-07T10:44:47;100643.03;;;9.58;61.74
26823;BME280;14852;51.910;8.878;2024-03-07T10:47:20;100643.75;;;9.63;61.34
26823;BME280;14852;51.910;8.878;2024-03-07T10:50:03;100651.84;;;9.54;61.81
26823;BME280;14852;51.910;8.878;2024-03-07T10:52:41;100646.31;;;9.38;61.72
26823;BME280;14852;51.910;8.878;2024-03-07T10:55:15;100647.31;;;9.34;62.03
26823;BME280;14852;51.910;8.878;2024-03-07T10:57:52;100642.91;;;9.36;62.04
26823;BME280;14852;51.910;8.878;2024-03-07T11:00:22;100641.91;;;9.40;61.82
26823;BME280;14852;51.910;8.878;2024-03-07T11:03:06;100642.72;;;9.42;61.56
26823;BME280;14852;51.910;8.878;2024-03-07T11:05:35;100637.16;;;9.53;61.44
26823;BME280;14852;51.910;8.878;2024-03-07T11:08:02;100625.44;;;9.67;61.20
26823;BME280;14852;51.910;8.878;2024-03-07T11:10:38;100631.38;;;9.69;61.19
26823;BME280;14852;51.910;8.878;2024-03-07T11:13:07;100624.34;;;9.73;61.06
26823;BME280;14852;51.910;8.878;2024-03-07T11:15:36;100621.78;;;9.96;60.70
26823;BME280;14852;51.910;8.878;2024-03-07T11:18:03;100624.88;;;10.06;60.81
26823;BME280;14852;51.910;8.878;2024-03-07T11:20:39;100619.84;;;10.03;60.53
26823;BME280;14852;51.910;8.878;2024-03-07T11:26:09;100611.50;;;9.93;60.28
26823;BME280;14852;51.910;8.878;2024-03-07T11:28:42;100610.66;;;9.93;60.42
26823;BME280;14852;51.910;8.878;2024-03-07T11:31:27;100605.25;;;9.99;60.27
26823;BME280;14852;51.910;8.878;2024-03-07T11:34:15;100607.69;;;10.03;60.66
26823;BME280;14852;51.910;8.878;2024-03-07T11:36:45;100604.81;;;10.11;60.63
26823;BME280;14852;51.910;8.878;2024-03-07T11:39:46;100594.25;;;10.39;59.75
26823;BME280;14852;51.910;8.878;2024-03-07T11:42:29;100583.69;;;10.65;60.03
26823;BME280;14852;51.910;8.878;2024-03-07T11:45:02;100565.81;;;10.79;59.44
26823;BME280;14852;51.910;8.878;2024-03-07T11:47:38;100571.81;;;11.02;59.46
26823;BME280;14852;51.910;8.878;2024-03-07T11:50:08;100568.25;;;11.04;59.33
26823;BME280;14852;51.910;8.878;2024-03-07T11:52:37;100566.56;;;11.03;59.03
26823;BME280;14852;51.910;8.878;2024-03-07T11:55:08;100558.81;;;11.22;58.92
26823;BME280;14852;51.910;8.878;2024-03-07T11:57:34;100551.41;;;11.33;58.75
26823;BME280;14852;51.910;8.878;2024-03-07T12:00:01;100555.91;;;11.50;58.03
26823;BME280;14852;51.910;8.878;2024-03-07T12:05:13;100547.34;;;11.87;57.41
26823;BME280;14852;51.910;8.878;2024-03-07T12:07:41;100539.53;;;11.87;57.03
26823;BME280;14852;51.910;8.878;2024-03-07T12:10:11;100528.41;;;11.83;57.29
26823;BME280;14852;51.910;8.878;2024-03-07T12:12:40;100530.34;;;11.78;57.50
26823;BME280;14852;51.910;8.878;2024-03-07T12:15:08;100526.38;;;11.70;56.76
26823;BME280;14852;51.910;8.878;2024-03-07T12:17:52;100529.16;;;11.46;56.68
26823;BME280;14852;51.910;8.878;2024-03-07T12:20:19;100520.34;;;11.30;56.92
26823;BME280;14852;51.910;8.878;2024-03-07T12:22:59;100527.41;;;11.27;56.83
26823;BME280;14852;51.910;8.878;2024-03-07T12:25:28;100515.03;;;11.32;56.93
26823;BME280;14852;51.910;8.878;2024-03-07T12:28:09;100513.44;;;11.29;56.21
26823;BME280;14852;51.910;8.878;2024-03-07T12:30:55;100509.34;;;11.23;56.37
26823;BME280;14852;51.910;8.878;2024-03-07T12:33:22;100510.38;;;11.19;56.24
26823;BME280;14852;51.910;8.878;2024-03-07T12:35:54;100502.06;;;11.11;56.36
26823;BME280;14852;51.910;8.878;2024-03-07T12:38:31;100496.00;;;11.11;56.35
26823;BME280;14852;51.910;8.878;2024-03-07T12:41:06;100489.72;;;11.16;56.22
26823;BME280;14852;51.910;8.878;2024-03-07T12:43:43;100501.97;;;11.33;55.41
26823;BME280;14852;51.910;8.878;2024-03-07T12:46:11;100491.16;;;11.42;55.43
26823;BME280;14852;51.910;8.878;2024-03-07T12:48:41;100487.75;;;11.42;55.41
26823;BME280;14852;51.910;8.878;2024-03-07T12:51:06;100489.56;;;11.40;55.13
26823;BME280;14852;51.910;8.878;2024-03-07T12:53:32;100481.75;;;11.40;54.65
26823;BME280;14852;51.910;8.878;2024-03-07T12:56:00;100473.59;;;11.47;54.91
26823;BME280;14852;51.910;8.878;2024-03-07T12:58:26;100476.69;;;11.37;53.66
26823;BME280;14852;51.910;8.878;2024-03-07T13:00:57;100485.75;;;11.28;54.29
26823;BME280;14852;51.910;8.878;2024-03-07T13:03:24;100477.22;;;11.24;54.75
26823;BME280;14852;51.910;8.878;2024-03-07T13:05:56;100480.31;;;11.33;54.69
26823;BME280;14852;51.910;8.878;2024-03-07T13:08:27;100475.34;;;11.28;54.10
26823;BME280;14852;51.910;8.878;2024-03-07T13:10:54;100477.34;;;11.42;54.16
26823;BME280;14852;51.910;8.878;2024-03-07T13:13:21;100472.00;;;11.64;53.98